sensor_id;sensor_type;location;lat;lon;timestamp;pressure;altitude;pressure_sealevel;temperature;humidity
80186;BME280;69904;52.122;5.422;2023-06-10T00:00:43;101524.47;;;22.86;43.60
80186;BME280;69904;52.122;5.422;2023-06-10T00:03:10;101514.00;;;22.88;43.48
80186;BME280;69904;52.122;5.422;2023-06-10T00:05:37;101509.56;;;22.87;43.59
80186;BME280;69904;52.122;5.422;2023-06-10T00:08:05;101510.38;;;22.83;43.25
80186;BME280;69904;52.122;5.422;2023-06-10T00:10:36;101516.09;;;22.76;43.10
80186;BME280;69904;52.122;5.422;2023-06-10T00:13:04;101522.16;;;22.78;43.44
80186;BME280;69904;52.122;5.422;2023-06-10T00:15:31;101526.28;;;22.76;43.38
80186;BME280;69904;52.122;5.422;2023-06-10T00:17:57;101518.53;;;22.73;43.10
80186;BME280;69904;52.122;5.422;2023-06-10T00:20:24;101523.13;;;22.67;43.38
80186;BME280;69904;52.122;5.422;2023-06-10T00:22:51;101525.59;;;22.63;43.42
80186;BME280;69904;52.122;5.422;2023-06-10T00:25:19;101527.75;;;22.61;43.75
80186;BME280;69904;52.122;5.422;2023-06-10T00:27:45;101524.72;;;22.58;43.63
80186;BME280;69904;52.122;5.422;2023-06-10T00:30:12;101530.47;;;22.56;43.54
80186;BME280;69904;52.122;5.422;2023-06-10T00:32:38;101534.84;;;22.52;43.88
80186;BME280;69904;52.122;5.422;2023-06-10T00:35:06;101524.34;;;22.49;43.40
80186;BME280;69904;52.122;5.422;2023-06-10T00:37:33;101527.38;;;22.48;42.94
80186;BME280;69904;52.122;5.422;2023-06-10T00:40:03;101528.16;;;22.43;43.39
80186;BME280;69904;52.122;5.422;2023-06-10T00:42:30;101531.41;;;22.40;43.14
80186;BME280;69904;52.122;5.422;2023-06-10T00:44:57;101535.25;;;22.39;43.09
80186;BME280;69904;52.122;5.422;2023-06-10T00:47:24;101528.00;;;22.33;43.02
80186;BME280;69904;52.122;5.422;2023-06-10T00:49:51;101528.31;;;22.32;43.06
80186;BME280;69904;52.122;5.422;2023-06-10T00:52:18;101539.50;;;22.25;42.87
80186;BME280;69904;52.122;5.422;2023-06-10T00:54:46;101531.78;;;22.22;42.74
80186;BME280;69904;52.122;5.422;2023-06-10T00:57:13;101531.78;;;22.22;42.90
80186;BME280;69904;52.122;5.422;2023-06-10T00:59:41;101536.69;;;22.20;42.82
80186;BME280;69904;52.122;5.422;2023-06-10T01:02:10;101527.84;;;22.18;42.71
80186;BME280;69904;52.122;5.422;2023-06-10T01:04:36;101535.56;;;22.16;42.75
80186;BME280;69904;52.122;5.422;2023-06-10T01:07:10;101527.81;;;22.13;42.72
80186;BME280;69904;52.122;5.422;2023-06-10T01:10:05;101522.00;;;22.09;42.49
80186;BME280;69904;52.122;5.422;2023-06-10T01:13:00;101541.44;;;22.03;42.86
80186;BME280;69904;52.122;5.422;2023-06-10T01:15:31;101539.75;;;22.02;42.45
80186;BME280;69904;52.122;5.422;2023-06-10T01:18:02;101533.66;;;21.95;42.72
80186;BME280;69904;52.122;5.422;2023-06-10T01:20:31;101533.03;;;21.93;42.51
80186;BME280;69904;52.122;5.422;2023-06-10T01:23:00;101540.69;;;21.91;42.49
80186;BME280;69904;52.122;5.422;2023-06-10T01:25:27;101542.13;;;21.93;42.59
80186;BME280;69904;52.122;5.422;2023-06-10T01:31:08;101540.56;;;21.80;42.73
80186;BME280;69904;52.122;5.422;2023-06-10T01:33:39;101546.59;;;21.77;42.85
80186;BME280;69904;52.122;5.422;2023-06-10T01:36:07;101543.84;;;21.77;42.76
80186;BME280;69904;52.122;5.422;2023-06-10T01:38:40;101542.69;;;21.73;43.08
80186;BME280;69904;52.122;5.422;2023-06-10T01:41:09;101539.34;;;21.71;43.41
80186;BME280;69904;52.122;5.422;2023-06-10T01:43:39;101540.13;;;21.67;43.23
80186;BME280;69904;52.122;5.422;2023-06-10T01:46:06;101539.53;;;21.65;43.39
80186;BME280;69904;52.122;5.422;2023-06-10T01:48:33;101536.78;;;21.65;43.33
80186;BME280;69904;52.122;5.422;2023-06-10T01:50:59;101542.28;;;21.65;43.65
80186;BME280;69904;52.122;5.422;2023-06-10T01:53:26;101542.22;;;21.60;43.84
80186;BME280;69904;52.122;5.422;2023-06-10T01:55:52;101541.66;;;21.58;43.61
80186;BME280;69904;52.122;5.422;2023-06-10T01:58:18;101544.31;;;21.53;44.15
80186;BME280;69904;52.122;5.422;2023-06-10T02:00:45;101540.69;;;21.47;44.31
80186;BME280;69904;52.122;5.422;2023-06-10T02:03:11;101540.59;;;21.42;44.33
80186;BME280;69904;52.122;5.422;2023-06-10T02:05:39;101537.75;;;21.37;44.69
80186;BME280;69904;52.122;5.422;2023-06-10T02:08:06;101545.34;;;21.30;44.52
80186;BME280;69904;52.122;5.422;2023-06-10T02:10:32;101542.25;;;21.26;45.20
80186;BME280;69904;52.122;5.422;2023-06-10T02:12:58;101540.28;;;21.22;44.96
80186;BME280;69904;52.122;5.422;2023-06-10T02:15:25;101550.34;;;21.16;45.14
80186;BME280;69904;52.122;5.422;2023-06-10T02:17:52;101543.66;;;21.12;45.44
80186;BME280;69904;52.122;5.422;2023-06-10T02:20:18;101541.44;;;21.09;45.72
80186;BME280;69904;52.122;5.422;2023-06-10T02:22:45;101544.41;;;21.08;45.92
80186;BME280;69904;52.122;5.422;2023-06-10T02:25:12;101549.22;;;21.00;45.92
80186;BME280;69904;52.122;5.422;2023-06-10T02:27:38;101552.72;;;20.96;46.09
80186;BME280;69904;52.122;5.422;2023-06-10T02:30:05;101558.97;;;20.91;46.39
80186;BME280;69904;52.122;5.422;2023-06-10T02:32:32;101557.81;;;20.87;46.23
80186;BME280;69904;52.122;5.422;2023-06-10T02:34:58;101561.63;;;20.86;47.04
80186;BME280;69904;52.122;5.422;2023-06-10T02:37:26;101562.38;;;20.82;46.89
80186;BME280;69904;52.122;5.422;2023-06-10T02:39:53;101567.28;;;20.80;46.91
80186;BME280;69904;52.122;5.422;2023-06-10T02:42:20;101562.53;;;20.75;47.03
80186;BME280;69904;52.122;5.422;2023-06-10T02:44:47;101561.13;;;20.73;47.13
80186;BME280;69904;52.122;5.422;2023-06-10T02:47:13;101564.34;;;20.70;47.70
80186;BME280;69904;52.122;5.422;2023-06-10T02:49:39;101561.84;;;20.68;47.32
80186;BME280;69904;52.122;5.422;2023-06-10T02:52:06;101564.75;;;20.62;47.49
80186;BME280;69904;52.122;5.422;2023-06-10T02:54:34;101560.81;;;20.57;48.04
80186;BME280;69904;52.122;5.422;2023-06-10T02:57:02;101565.66;;;20.50;48.19
80186;BME280;69904;52.122;5.422;2023-06-10T02:59:28;101561.25;;;20.49;48.60
80186;BME280;69904;52.122;5.422;2023-06-10T03:01:55;101563.38;;;20.47;48.56
80186;BME280;69904;52.122;5.422;2023-06-10T03:04:21;101564.13;;;20.43;48.58
80186;BME280;69904;52.122;5.422;2023-06-10T03:06:50;101565.19;;;20.42;48.86
80186;BME280;69904;52.122;5.422;2023-06-10T03:09:16;101561.03;;;20.39;48.82
80186;BME280;69904;52.122;5.422;2023-06-10T03:11:42;101561.88;;;20.40;49.00
80186;BME280;69904;52.122;5.422;2023-06-10T03:14:09;101562.94;;;20.39;49.11
80186;BME280;69904;52.122;5.422;2023-06-10T03:16:35;101565.94;;;20.37;48.78
80186;BME280;69904;52.122;5.422;2023-06-10T03:19:02;101559.72;;;20.30;48.98
80186;BME280;69904;52.122;5.422;2023-06-10T03:21:28;101561.41;;;20.31;49.02
80186;BME280;69904;52.122;5.422;2023-06-10T03:23:55;101567.13;;;20.30;48.97
80186;BME280;69904;52.122;5.422;2023-06-10T03:26:21;101566.03;;;20.31;49.18
80186;BME280;69904;52.122;5.422;2023-06-10T03:28:48;101565.00;;;20.32;49.23
80186;BME280;69904;52.122;5.422;2023-06-10T03:31:15;101564.41;;;20.30;49.34
80186;BME280;69904;52.122;5.422;2023-06-10T03:33:43;101565.09;;;20.25;49.17
80186;BME280;69904;52.122;5.422;2023-06-10T03:36:09;101564.28;;;20.25;49.95
80186;BME280;69904;52.122;5.422;2023-06-10T03:38:36;101568.59;;;20.21;49.46
80186;BME280;69904;52.122;5.422;2023-06-10T03:41:03;101572.88;;;20.16;49.75
80186;BME280;69904;52.122;5.422;2023-06-10T03:43:29;101581.34;;;20.15;50.25
80186;BME280;69904;52.122;5.422;2023-06-10T03:45:57;101572.78;;;20.11;50.10
80186;BME280;69904;52.122;5.422;2023-06-10T03:48:23;101579.34;;;20.10;50.27
80186;BME280;69904;52.122;5.422;2023-06-10T03:50:50;101576.13;;;20.13;49.70
80186;BME280;69904;52.122;5.422;2023-06-10T03:53:19;101576.38;;;20.12;50.06
80186;BME280;69904;52.122;5.422;2023-06-10T03:55:45;101583.16;;;20.09;49.84
80186;BME280;69904;52.122;5.422;2023-06-10T03:58:12;101573.53;;;20.07;49.99
80186;BME280;69904;52.122;5.422;2023-06-10T04:00:41;101577.94;;;20.08;50.19
80186;BME280;69904;52.122;5.422;2023-06-10T04:03:08;101579.25;;;20.05;50.50
80186;BME280;69904;52.122;5.422;2023-06-10T04:05:35;101579.25;;;20.05;50.73
80186;BME280;69904;52.122;5.422;2023-06-10T04:08:02;101589.59;;;20.03;50.77
80186;BME280;69904;52.122;5.422;2023-06-10T04:10:29;101583.31;;;20.03;50.74
80186;BME280;69904;52.122;5.422;2023-06-10T04:12:55;101584.00;;;19.98;50.53
80186;BME280;69904;52.122;5.422;2023-06-10T04:15:21;101586.75;;;19.98;51.45
80186;BME280;69904;52.122;5.422;2023-06-10T04:17:48;101588.91;;;19.96;51.44
80186;BME280;69904;52.122;5.422;2023-06-10T04:20:15;101586.66;;;19.93;51.46
80186;BME280;69904;52.122;5.422;2023-06-10T04:22:42;101589.16;;;19.95;51.33
80186;BME280;69904;52.122;5.422;2023-06-10T04:25:09;101591.88;;;19.95;51.72
80186;BME280;69904;52.122;5.422;2023-06-10T04:27:36;101594.88;;;19.93;51.49
80186;BME280;69904;52.122;5.422;2023-06-10T04:30:03;101598.69;;;19.92;52.11
80186;BME280;69904;52.122;5.422;2023-06-10T04:32:30;101597.59;;;19.93;51.84
80186;BME280;69904;52.122;5.422;2023-06-10T04:34:56;101598.44;;;19.94;51.72
80186;BME280;69904;52.122;5.422;2023-06-10T04:37:24;101598.94;;;19.91;51.99
80186;BME280;69904;52.122;5.422;2023-06-10T04:39:50;101599.16;;;19.89;51.95
80186;BME280;69904;52.122;5.422;2023-06-10T04:42:17;101597.59;;;19.93;52.20
80186;BME280;69904;52.122;5.422;2023-06-10T04:44:43;101604.75;;;19.94;52.50
80186;BME280;69904;52.122;5.422;2023-06-10T04:47:09;101609.16;;;19.95;52.80
80186;BME280;69904;52.122;5.422;2023-06-10T04:49:36;101604.75;;;19.94;52.83
80186;BME280;69904;52.122;5.422;2023-06-10T04:52:03;101608.09;;;19.96;52.90
80186;BME280;69904;52.122;5.422;2023-06-10T04:54:31;101605.38;;;19.96;52.73
80186;BME280;69904;52.122;5.422;2023-06-10T04:56:58;101605.38;;;19.96;53.12
80186;BME280;69904;52.122;5.422;2023-06-10T04:59:26;101615.25;;;19.97;53.44
80186;BME280;69904;52.122;5.422;2023-06-10T05:01:53;101611.41;;;19.98;53.35
80186;BME280;69904;52.122;5.422;2023-06-10T05:04:19;101614.75;;;20.00;52.65
80186;BME280;69904;52.122;5.422;2023-06-10T05:06:46;101615.81;;;19.99;53.01
80186;BME280;69904;52.122;5.422;2023-06-10T05:09:12;101612.84;;;20.01;53.79
80186;BME280;69904;52.122;5.422;2023-06-10T05:11:39;101617.84;;;20.04;53.73
80186;BME280;69904;52.122;5.422;2023-06-10T05:14:05;101607.47;;;20.06;53.41
80186;BME280;69904;52.122;5.422;2023-06-10T05:16:32;101615.47;;;20.07;53.35
80186;BME280;69904;52.122;5.422;2023-06-10T05:18:58;101615.81;;;20.11;53.62
80186;BME280;69904;52.122;5.422;2023-06-10T05:21:25;101612.00;;;20.12;53.97
80186;BME280;69904;52.122;5.422;2023-06-10T05:23:51;101608.66;;;20.10;54.13
80186;BME280;69904;52.122;5.422;2023-06-10T05:26:18;101610.94;;;20.13;53.96
80186;BME280;69904;52.122;5.422;2023-06-10T05:28:44;101618.19;;;20.19;54.14
80186;BME280;69904;52.122;5.422;2023-06-10T05:31:10;101609.22;;;20.24;53.49
80186;BME280;69904;52.122;5.422;2023-06-10T05:33:37;101612.22;;;20.22;53.96
80186;BME280;69904;52.122;5.422;2023-06-10T05:36:04;101614.72;;;20.24;53.83
80186;BME280;69904;52.122;5.422;2023-06-10T05:38:31;101614.44;;;20.25;54.04
80186;BME280;69904;52.122;5.422;2023-06-10T05:40:57;101613.38;;;20.26;53.85
80186;BME280;69904;52.122;5.422;2023-06-10T05:43:25;101622.44;;;20.27;54.27
80186;BME280;69904;52.122;5.422;2023-06-10T05:45:52;101621.50;;;20.33;54.43
80186;BME280;69904;52.122;5.422;2023-06-10T05:48:18;101626.03;;;20.39;54.10
80186;BME280;69904;52.122;5.422;2023-06-10T05:50:46;101629.09;;;20.42;54.29
80186;BME280;69904;52.122;5.422;2023-06-10T05:53:15;101626.44;;;20.47;54.28
80186;BME280;69904;52.122;5.422;2023-06-10T05:55:45;101629.56;;;20.51;53.92
80186;BME280;69904;52.122;5.422;2023-06-10T05:58:13;101626.81;;;20.51;54.07
80186;BME280;69904;52.122;5.422;2023-06-10T06:00:40;101625.72;;;20.52;53.57
80186;BME280;69904;52.122;5.422;2023-06-10T06:03:08;101629.66;;;20.56;53.56
80186;BME280;69904;52.122;5.422;2023-06-10T06:05:35;101624.00;;;20.63;53.63
80186;BME280;69904;52.122;5.422;2023-06-10T06:08:10;101618.88;;;20.66;54.12
80186;BME280;69904;52.122;5.422;2023-06-10T06:10:36;101620.28;;;20.69;53.61
80186;BME280;69904;52.122;5.422;2023-06-10T06:13:02;101624.47;;;20.71;53.82
80186;BME280;69904;52.122;5.422;2023-06-10T06:15:29;101620.38;;;20.74;53.98
80186;BME280;69904;52.122;5.422;2023-06-10T06:17:55;101628.97;;;20.77;53.94
80186;BME280;69904;52.122;5.422;2023-06-10T06:20:22;101624.88;;;20.80;53.54
80186;BME280;69904;52.122;5.422;2023-06-10T06:22:49;101621.66;;;20.83;53.63
80186;BME280;69904;52.122;5.422;2023-06-10T06:25:15;101622.84;;;20.87;53.65
80186;BME280;69904;52.122;5.422;2023-06-10T06:27:42;101620.66;;;20.89;53.27
80186;BME280;69904;52.122;5.422;2023-06-10T06:30:09;101619.09;;;20.93;53.76
80186;BME280;69904;52.122;5.422;2023-06-10T06:32:35;101621.34;;;20.96;53.32
80186;BME280;69904;52.122;5.422;2023-06-10T06:35:02;101614.53;;;20.98;53.20
80186;BME280;69904;52.122;5.422;2023-06-10T06:37:28;101609.53;;;20.95;52.75
80186;BME280;69904;52.122;5.422;2023-06-10T06:39:55;101616.78;;;21.01;52.79
80186;BME280;69904;52.122;5.422;2023-06-10T06:42:21;101608.88;;;21.05;52.61
80186;BME280;69904;52.122;5.422;2023-06-10T06:44:48;101611.97;;;21.09;52.36
80186;BME280;69904;52.122;5.422;2023-06-10T06:47:14;101615.66;;;21.14;52.15
80186;BME280;69904;52.122;5.422;2023-06-10T06:49:40;101615.16;;;21.17;52.55
80186;BME280;69904;52.122;5.422;2023-06-10T06:52:07;101609.75;;;21.22;52.65
80186;BME280;69904;52.122;5.422;2023-06-10T06:54:33;101618.66;;;21.29;52.34
80186;BME280;69904;52.122;5.422;2023-06-10T06:57:00;101618.97;;;21.33;52.28
80186;BME280;69904;52.122;5.422;2023-06-10T06:59:26;101619.56;;;21.35;52.31
80186;BME280;69904;52.122;5.422;2023-06-10T07:01:52;101619.06;;;21.38;51.91
80186;BME280;69904;52.122;5.422;2023-06-10T07:04:21;101613.09;;;21.41;51.63
80186;BME280;69904;52.122;5.422;2023-06-10T07:06:48;101624.41;;;21.45;52.13
80186;BME280;69904;52.122;5.422;2023-06-10T07:09:14;101618.16;;;21.49;51.64
80186;BME280;69904;52.122;5.422;2023-06-10T07:11:41;101632.22;;;21.53;51.61
80186;BME280;69904;52.122;5.422;2023-06-10T07:14:08;101633.09;;;21.58;51.59
80186;BME280;69904;52.122;5.422;2023-06-10T07:16:34;101625.53;;;21.65;51.67
80186;BME280;69904;52.122;5.422;2023-06-10T07:19:00;101626.19;;;21.72;51.75
80186;BME280;69904;52.122;5.422;2023-06-10T07:21:31;101630.69;;;21.78;51.27
80186;BME280;69904;52.122;5.422;2023-06-10T07:23:58;101626.09;;;21.84;51.13
80186;BME280;69904;52.122;5.422;2023-06-10T07:26:25;101628.91;;;21.89;51.46
80186;BME280;69904;52.122;5.422;2023-06-10T07:28:52;101627.66;;;21.97;51.20
80186;BME280;69904;52.122;5.422;2023-06-10T07:31:18;101622.75;;;21.99;50.89
80186;BME280;69904;52.122;5.422;2023-06-10T07:33:46;101635.50;;;22.05;50.21
80186;BME280;69904;52.122;5.422;2023-06-10T07:36:13;101631.38;;;22.07;50.29
80186;BME280;69904;52.122;5.422;2023-06-10T07:38:39;101632.56;;;22.11;50.51
80186;BME280;69904;52.122;5.422;2023-06-10T07:41:08;101635.69;;;22.20;50.59
80186;BME280;69904;52.122;5.422;2023-06-10T07:43:35;101632.41;;;22.23;50.51
80186;BME280;69904;52.122;5.422;2023-06-10T07:46:01;101639.09;;;22.27;50.47
80186;BME280;69904;52.122;5.422;2023-06-10T07:48:28;101636.97;;;22.34;50.09
80186;BME280;69904;52.122;5.422;2023-06-10T07:50:54;101627.94;;;22.39;49.79
80186;BME280;69904;52.122;5.422;2023-06-10T07:53:21;101642.03;;;22.42;50.08
80186;BME280;69904;52.122;5.422;2023-06-10T07:55:47;101640.16;;;22.48;49.76
80186;BME280;69904;52.122;5.422;2023-06-10T07:58:14;101639.94;;;22.54;49.44
80186;BME280;69904;52.122;5.422;2023-06-10T08:00:40;101642.78;;;22.59;49.22
80186;BME280;69904;52.122;5.422;2023-06-10T08:03:07;101638.72;;;22.67;49.64
80186;BME280;69904;52.122;5.422;2023-06-10T08:05:34;101642.97;;;22.75;49.37
80186;BME280;69904;52.122;5.422;2023-06-10T08:08:00;101640.28;;;22.80;49.08
80186;BME280;69904;52.122;5.422;2023-06-10T08:10:29;101638.66;;;22.84;48.71
80186;BME280;69904;52.122;5.422;2023-06-10T08:12:56;101638.47;;;22.90;48.71
80186;BME280;69904;52.122;5.422;2023-06-10T08:15:22;101646.53;;;22.97;48.78
80186;BME280;69904;52.122;5.422;2023-06-10T08:17:48;101644.63;;;23.02;48.12
80186;BME280;69904;52.122;5.422;2023-06-10T08:20:15;101643.56;;;23.08;48.19
80186;BME280;69904;52.122;5.422;2023-06-10T08:22:41;101647.00;;;23.21;48.10
80186;BME280;69904;52.122;5.422;2023-06-10T08:25:08;101636.84;;;23.26;47.75
80186;BME280;69904;52.122;5.422;2023-06-10T08:27:35;101635.22;;;23.30;48.37
80186;BME280;69904;52.122;5.422;2023-06-10T08:30:02;101638.03;;;23.35;47.50
80186;BME280;69904;52.122;5.422;2023-06-10T08:32:29;101636.97;;;23.41;47.50
80186;BME280;69904;52.122;5.422;2023-06-10T08:34:56;101637.91;;;23.52;47.23
80186;BME280;69904;52.122;5.422;2023-06-10T08:37:22;101636.03;;;23.58;46.74
80186;BME280;69904;52.122;5.422;2023-06-10T08:39:49;101633.06;;;23.64;47.28
80186;BME280;69904;52.122;5.422;2023-06-10T08:44:55;101638.69;;;23.84;46.24
80186;BME280;69904;52.122;5.422;2023-06-10T08:47:23;101636.28;;;23.93;46.60
80186;BME280;69904;52.122;5.422;2023-06-10T08:49:51;101631.34;;;24.00;46.25
80186;BME280;69904;52.122;5.422;2023-06-10T08:52:24;101633.56;;;24.03;46.12
80186;BME280;69904;52.122;5.422;2023-06-10T08:54:56;101632.53;;;24.14;45.63
80186;BME280;69904;52.122;5.422;2023-06-10T08:57:23;101636.47;;;24.23;45.04
80186;BME280;69904;52.122;5.422;2023-06-10T08:59:50;101637.56;;;24.27;45.28
80186;BME280;69904;52.122;5.422;2023-06-10T09:02:16;101641.78;;;24.40;45.52
80186;BME280;69904;52.122;5.422;2023-06-10T09:04:47;101637.97;;;24.56;45.48
80186;BME280;69904;52.122;5.422;2023-06-10T09:07:15;101638.81;;;24.67;43.81
80186;BME280;69904;52.122;5.422;2023-06-10T09:09:43;101634.41;;;24.71;43.25
80186;BME280;69904;52.122;5.422;2023-06-10T09:12:13;101629.47;;;24.78;43.46
80186;BME280;69904;52.122;5.422;2023-06-10T09:14:40;101630.06;;;24.90;43.80
80186;BME280;69904;52.122;5.422;2023-06-10T09:17:07;101635.06;;;25.03;43.71
80186;BME280;69904;52.122;5.422;2023-06-10T09:19:35;101633.13;;;25.09;43.54
80186;BME280;69904;52.122;5.422;2023-06-10T09:22:01;101628.97;;;25.16;41.57
80186;BME280;69904;52.122;5.422;2023-06-10T09:24:28;101631.72;;;25.22;41.86
80186;BME280;69904;52.122;5.422;2023-06-10T09:27:06;101631.47;;;25.33;42.41
80186;BME280;69904;52.122;5.422;2023-06-10T09:29:52;101630.91;;;25.41;41.48
80186;BME280;69904;52.122;5.422;2023-06-10T09:32:20;101634.22;;;25.48;40.63
80186;BME280;69904;52.122;5.422;2023-06-10T09:34:48;101641.16;;;25.61;41.73
80186;BME280;69904;52.122;5.422;2023-06-10T09:37:22;101634.22;;;25.74;40.83
80186;BME280;69904;52.122;5.422;2023-06-10T09:40:06;101629.78;;;25.83;41.01
80186;BME280;69904;52.122;5.422;2023-06-10T09:42:38;101631.16;;;25.90;40.80
80186;BME280;69904;52.122;5.422;2023-06-10T09:45:06;101639.44;;;26.01;40.07
80186;BME280;69904;52.122;5.422;2023-06-10T09:47:33;101633.59;;;26.12;39.85
80186;BME280;69904;52.122;5.422;2023-06-10T09:50:00;101631.31;;;26.19;39.05
80186;BME280;69904;52.122;5.422;2023-06-10T09:52:29;101623.31;;;26.28;38.91
80186;BME280;69904;52.122;5.422;2023-06-10T09:55:00;101627.13;;;26.37;38.88
80186;BME280;69904;52.122;5.422;2023-06-10T09:57:31;101624.59;;;26.46;38.23
80186;BME280;69904;52.122;5.422;2023-06-10T09:59:59;101630.06;;;26.56;37.97
80186;BME280;69904;52.122;5.422;2023-06-10T10:02:25;101627.25;;;26.66;37.95
80186;BME280;69904;52.122;5.422;2023-06-10T10:04:52;101633.28;;;26.78;38.16
80186;BME280;69904;52.122;5.422;2023-06-10T10:07:18;101631.28;;;26.89;37.27
80186;BME280;69904;52.122;5.422;2023-06-10T10:09:45;101623.81;;;26.89;36.68
80186;BME280;69904;52.122;5.422;2023-06-10T10:12:14;101619.88;;;26.95;36.57
80186;BME280;69904;52.122;5.422;2023-06-10T10:14:46;101619.53;;;27.07;37.19
80186;BME280;69904;52.122;5.422;2023-06-10T10:17:15;101623.06;;;27.17;35.96
80186;BME280;69904;52.122;5.422;2023-06-10T10:19:52;101617.19;;;27.24;35.58
80186;BME280;69904;52.122;5.422;2023-06-10T10:22:25;101622.09;;;27.32;34.99
80186;BME280;69904;52.122;5.422;2023-06-10T10:24:55;101616.16;;;27.44;34.24
80186;BME280;69904;52.122;5.422;2023-06-10T10:27:33;101619.47;;;27.51;33.77
80186;BME280;69904;52.122;5.422;2023-06-10T10:30:03;101610.72;;;27.62;33.86
80186;BME280;69904;52.122;5.422;2023-06-10T10:32:40;101607.28;;;27.76;34.63
80186;BME280;69904;52.122;5.422;2023-06-10T10:35:24;101607.44;;;27.84;33.67
80186;BME280;69904;52.122;5.422;2023-06-10T10:37:53;101609.31;;;27.94;33.51
80186;BME280;69904;52.122;5.422;2023-06-10T10:40:23;101607.25;;;28.04;33.60
80186;BME280;69904;52.122;5.422;2023-06-10T10:42:51;101602.09;;;28.17;32.67
80186;BME280;69904;52.122;5.422;2023-06-10T10:45:18;101603.69;;;28.23;32.95
80186;BME280;69904;52.122;5.422;2023-06-10T10:47:46;101601.69;;;28.28;32.87
80186;BME280;69904;52.122;5.422;2023-06-10T10:50:17;101599.28;;;28.40;32.02
80186;BME280;69904;52.122;5.422;2023-06-10T10:52:59;101601.41;;;28.48;31.55
80186;BME280;69904;52.122;5.422;2023-06-10T10:55:27;101595.63;;;28.64;30.85
80186;BME280;69904;52.122;5.422;2023-06-10T10:58:07;101601.63;;;28.71;30.69
80186;BME280;69904;52.122;5.422;2023-06-10T11:03:07;101595.66;;;28.82;29.33
80186;BME280;69904;52.122;5.422;2023-06-10T11:05:42;101600.84;;;28.89;30.02
80186;BME280;69904;52.122;5.422;2023-06-10T11:08:11;101592.50;;;28.89;29.58
80186;BME280;69904;52.122;5.422;2023-06-10T11:10:39;101595.88;;;28.86;29.30
80186;BME280;69904;52.122;5.422;2023-06-10T11:13:13;101589.63;;;28.94;29.54
80186;BME280;69904;52.122;5.422;2023-06-10T11:15:44;101595.53;;;29.06;30.48
80186;BME280;69904;52.122;5.422;2023-06-10T11:18:24;101594.66;;;29.11;29.49
80186;BME280;69904;52.122;5.422;2023-06-10T11:26:12;101582.63;;;29.15;29.26
80186;BME280;69904;52.122;5.422;2023-06-10T11:28:40;101576.97;;;29.20;29.14
80186;BME280;69904;52.122;5.422;2023-06-10T11:31:08;101575.69;;;29.32;30.03
80186;BME280;69904;52.122;5.422;2023-06-10T11:33:38;101583.63;;;29.38;29.51
80186;BME280;69904;52.122;5.422;2023-06-10T11:36:07;101576.81;;;29.44;29.72
80186;BME280;69904;52.122;5.422;2023-06-10T11:38:34;101562.19;;;29.39;29.21
80186;BME280;69904;52.122;5.422;2023-06-10T11:41:01;101583.63;;;29.38;29.18
80186;BME280;69904;52.122;5.422;2023-06-10T11:43:29;101573.41;;;29.34;28.28
80186;BME280;69904;52.122;5.422;2023-06-10T11:45:56;101570.38;;;29.30;29.07
80186;BME280;69904;52.122;5.422;2023-06-10T11:48:23;101571.34;;;29.39;28.71
80186;BME280;69904;52.122;5.422;2023-06-10T11:50:49;101561.78;;;29.45;28.25
80186;BME280;69904;52.122;5.422;2023-06-10T11:53:16;101568.47;;;29.44;29.32
80186;BME280;69904;52.122;5.422;2023-06-10T11:55:46;101563.97;;;29.48;29.09
80186;BME280;69904;52.122;5.422;2023-06-10T11:58:17;101558.41;;;29.48;28.76
80186;BME280;69904;52.122;5.422;2023-06-10T12:00:54;101555.72;;;29.57;29.11
80186;BME280;69904;52.122;5.422;2023-06-10T12:03:22;101554.31;;;29.59;28.62
80186;BME280;69904;52.122;5.422;2023-06-10T12:06:01;101559.53;;;29.61;28.92
80186;BME280;69904;52.122;5.422;2023-06-10T12:08:29;101554.72;;;29.66;28.95
80186;BME280;69904;52.122;5.422;2023-06-10T12:10:56;101560.91;;;29.63;28.45
80186;BME280;69904;52.122;5.422;2023-06-10T12:13:26;101547.38;;;29.70;28.42
80186;BME280;69904;52.122;5.422;2023-06-10T12:15:53;101549.78;;;29.63;27.98
80186;BME280;69904;52.122;5.422;2023-06-10T12:18:21;101546.16;;;29.63;28.07
80186;BME280;69904;52.122;5.422;2023-06-10T12:20:50;101541.63;;;29.67;28.53
80186;BME280;69904;52.122;5.422;2023-06-10T12:23:18;101546.25;;;29.71;28.44
80186;BME280;69904;52.122;5.422;2023-06-10T12:25:52;101543.06;;;29.78;28.67
80186;BME280;69904;52.122;5.422;2023-06-10T12:28:23;101535.13;;;29.85;28.06
80186;BME280;69904;52.122;5.422;2023-06-10T12:30:50;101528.31;;;29.78;28.16
80186;BME280;69904;52.122;5.422;2023-06-10T12:33:18;101534.19;;;29.76;28.22
80186;BME280;69904;52.122;5.422;2023-06-10T12:35:49;101533.28;;;29.81;27.98
80186;BME280;69904;52.122;5.422;2023-06-10T12:38:23;101530.19;;;29.82;27.50
80186;BME280;69904;52.122;5.422;2023-06-10T12:41:02;101536.66;;;29.78;28.45
80186;BME280;69904;52.122;5.422;2023-06-10T12:43:32;101531.09;;;29.78;27.91
80186;BME280;69904;52.122;5.422;2023-06-10T12:46:08;101535.75;;;29.82;27.76
80186;BME280;69904;52.122;5.422;2023-06-10T12:48:36;101531.94;;;29.92;27.62
80186;BME280;69904;52.122;5.422;2023-06-10T12:51:05;101532.34;;;29.99;27.46
80186;BME280;69904;52.122;5.422;2023-06-10T12:53:32;101535.16;;;29.99;26.95
80186;BME280;69904;52.122;5.422;2023-06-10T12:55:59;101531.41;;;30.03;26.39
80186;BME280;69904;52.122;5.422;2023-06-10T12:58:28;101529.47;;;30.04;27.45
80186;BME280;69904;52.122;5.422;2023-06-10T13:00:55;101528.84;;;30.07;26.22
80186;BME280;69904;52.122;5.422;2023-06-10T13:03:23;101536.50;;;30.01;26.12
80186;BME280;69904;52.122;5.422;2023-06-10T13:05:49;101525.97;;;29.98;27.53
80186;BME280;69904;52.122;5.422;2023-06-10T13:08:15;101535.94;;;30.13;27.29